Latest Weather Observations for Derby

IDW60801

Issued at 8:03 am WST Monday 25 July 2016 (issued every 30 minutes, with the page automatically refreshed every 10 minutes)

About weather observations | Map of weather stations | Latest weather observations for WA | Other Formats
Station Details ID: 003032 Name: DERBY AERO Lat: -17.37 Lon: 123.66 Height: 6.2 m
Data from the previous 72 hours. | See also: Recent months at Derby
Date/Time
WST
Temp
°C
App
Temp
°C
Dew
Point
°C
Rel
Hum
%
Delta-T
°C
Wind Press
QNH
hPa
Press
MSL
hPa
Rain since
9am
mm
Dir  Spd
km/h
Gust
km/h
Spd
kts
Gust
kts
25/08:00am 22.5 18.5 6.7 36 8.1 SSE 17 22 9 12 1015.5 1015.5 0.0
25/07:30am 20.1 15.4 6.1 40 7.0 S 20 26 11 14 1015.5 1015.5 0.0
25/07:00am 18.9 13.9 6.4 44 6.2 S 22 26 12 14 1015.4 1015.4 0.0
25/06:30am 17.7 13.6 6.3 47 5.6 S 17 24 9 13 1015.3 1015.3 0.0
25/06:00am 17.7 13.5 5.9 46 5.8 S 17 20 9 11 1014.7 1014.7 0.0
25/05:30am 17.8 13.7 6.0 46 5.8 S 17 20 9 11 1014.3 1014.3 0.0
25/05:00am 17.9 13.9 6.7 48 5.6 S 17 20 9 11 1013.9 1013.9 0.0
25/04:30am 17.5 14.1 6.1 47 5.6 SSW 13 17 7 9 1013.7 1013.7 0.0
25/04:00am 17.8 14.6 5.1 43 6.1 SSW 11 17 6 9 1013.7 1013.7 0.0
25/03:30am 17.4 15.0 4.4 42 6.1 SW 6 9 3 5 1013.6 1013.6 0.0
25/03:00am 18.3 17.0 4.1 39 6.7 CALM 0 0 0 0 1013.5 1013.5 0.0
25/02:30am 20.0 16.3 4.5 36 7.5 SSE 13 17 7 9 1013.3 1013.3 0.0
25/02:00am 19.8 16.1 4.3 36 7.4 SSE 13 17 7 9 1013.4 1013.4 0.0
25/01:30am 21.2 17.2 4.7 34 8.1 SSE 15 17 8 9 1013.7 1013.7 0.0
25/01:00am 22.5 18.1 5.0 32 8.7 SSE 17 20 9 11 1013.9 1013.9 0.0
25/12:30am 22.9 18.2 5.3 32 8.8 SSE 19 24 10 13 1014.1 1014.1 0.0
25/12:00am 22.8 18.9 5.3 32 8.7 SSE 15 17 8 9 1014.2 1014.2 0.0
 
Date/Time
WST
Temp
°C
App
Temp
°C
Dew
Point
°C
Rel
Hum
%
Delta-T
°C
Wind Press
QNH
hPa
Press
MSL
hPa
Rain since
9am
mm
Dir  Spd
km/h
Gust
km/h
Spd
kts
Gust
kts
24/11:30pm 22.5 18.9 5.0 32 8.7 SSE 13 15 7 8 1014.1 1014.1 0.0
24/11:00pm 23.1 19.5 5.1 31 9.0 SSE 13 15 7 8 1014.2 1014.2 0.0
24/10:30pm 23.6 19.6 5.0 30 9.3 SSE 15 19 8 10 1014.2 1014.2 0.0
24/10:00pm 23.2 19.6 5.2 31 9.0 SSE 13 17 7 9 1014.1 1014.1 0.0
24/09:30pm 25.1 21.7 5.8 29 9.9 SE 13 15 7 8 1014.1 1014.1 0.0
24/09:00pm 26.0 22.2 5.6 27 10.5 SE 15 17 8 9 1014.0 1014.0 0.0
24/08:30pm 26.8 22.7 6.2 27 10.7 SE 17 20 9 11 1013.9 1013.9 0.0
24/08:00pm 26.8 23.1 6.2 27 10.7 SE 15 19 8 10 1013.7 1013.7 0.0
24/07:30pm 26.7 23.2 5.6 26 10.9 SE 13 15 7 8 1013.5 1013.5 0.0
24/07:00pm 27.4 23.8 5.1 24 11.4 SSE 13 17 7 9 1012.9 1012.9 0.0
24/06:30pm 28.9 25.5 5.7 23 12.1 SE 13 17 7 9 1012.5 1012.5 0.0
24/06:00pm 30.3 26.1 5.6 21 13.0 SE 17 20 9 11 1012.1 1012.1 0.0
24/05:30pm 31.5 26.7 5.8 20 13.7 SE 20 28 11 15 1011.8 1011.8 0.0
24/05:00pm 32.9 28.7 5.5 18 14.6 SE 17 22 9 12 1011.6 1011.6 0.0
24/04:30pm 33.5 28.8 5.9 18 14.9 SE 20 30 11 16 1011.3 1011.3 0.0
24/04:00pm 33.9 29.3 6.3 18 15.0 SE 20 33 11 18 1011.0 1011.0 0.0
24/03:30pm 34.3 29.5 4.9 16 15.6 SE 19 26 10 14 1010.7 1010.7 0.0
24/03:00pm 34.2 30.9 4.8 16 15.6 ENE 11 20 6 11 1010.8 1010.8 0.0
24/02:30pm 34.0 29.8 5.5 17 15.3 E 17 30 9 16 1011.0 1011.0 0.0
24/02:00pm 34.1 29.7 6.4 18 15.1 SSE 19 28 10 15 1011.2 1011.2 0.0
24/01:30pm 34.1 30.0 6.4 18 15.1 ESE 17 37 9 20 1011.5 1011.5 0.0
24/01:00pm 33.7 29.6 6.1 18 14.9 ESE 17 24 9 13 1012.0 1012.0 0.0
24/12:30pm 34.0 29.5 6.3 18 15.0 ESE 19 26 10 14 1012.7 1012.7 0.0
24/12:00pm 32.6 28.2 6.7 20 14.1 ESE 19 32 10 17 1013.2 1013.2 0.0
24/11:30am 32.5 27.6 6.7 20 14.0 SE 22 28 12 15 1013.6 1013.6 0.0
24/11:00am 31.7 27.1 6.7 21 13.5 SE 20 30 11 16 1014.3 1014.3 0.0
24/10:30am 30.1 25.7 6.7 23 12.5 SE 19 28 10 15 1015.0 1015.0 0.0
24/10:00am 29.7 25.2 7.0 24 12.2 ESE 20 30 11 16 1015.4 1015.4 0.0
24/09:30am 28.7 24.1 6.7 25 11.7 SE 20 28 11 15 1015.7 1015.7 0.0
24/09:00am 27.4 22.9 6.8 27 10.9 SE 20 28 11 15 1015.7 1015.7 0.0
24/08:30am 26.1 21.2 6.7 29 10.2 SE 22 28 12 15 1015.6 1015.6 0.0
24/08:00am 24.1 19.5 6.4 32 9.1 SE 20 30 11 16 1015.5 1015.5 0.0
24/07:30am 21.1 17.4 6.2 38 7.5 S 15 19 8 10 1015.4 1015.4 0.0
24/07:00am 17.8 14.7 5.7 45 5.9 S 11 13 6 7 1015.1 1015.1 0.0
24/06:30am 16.9 14.2 5.5 47 5.5 S 9 11 5 6 1014.9 1014.9 0.0
24/06:00am 16.6 13.1 5.3 47 5.4 S 13 15 7 8 1014.7 1014.7 0.0
24/05:30am 17.3 14.6 5.6 46 5.7 S 9 11 5 6 1014.2 1014.2 0.0
24/05:00am 17.8 14.4 5.7 45 5.9 S 13 15 7 8 1013.7 1013.7 0.0
24/04:30am 17.4 13.7 4.7 43 6.0 SSW 13 15 7 8 1013.3 1013.3 0.0
24/04:00am 21.0 17.3 6.2 38 7.4 SSE 15 19 8 10 1013.0 1013.0 0.0
24/03:30am 19.8 16.0 5.8 40 6.9 SSE 15 17 8 9 1012.9 1012.9 0.0
24/03:00am 20.7 16.9 5.9 38 7.4 SSE 15 19 8 10 1012.6 1012.6 0.0
24/02:30am 20.1 16.1 5.0 37 7.4 S 15 17 8 9 1012.4 1012.4 0.0
24/02:00am 21.1 16.5 5.5 36 7.7 SSE 19 28 10 15 1012.4 1012.4 0.0
24/01:30am 22.9 18.8 6.2 34 8.5 SE 17 20 9 11 1012.2 1012.2 0.0
24/01:00am 22.6 18.9 6.4 35 8.3 SE 15 19 8 10 1012.3 1012.3 0.0
24/12:30am 22.7 19.0 6.5 35 8.3 SE 15 19 8 10 1012.5 1012.5 0.0
24/12:00am 21.6 18.4 6.7 38 7.6 SSE 13 15 7 8 1012.6 1012.6 0.0
 
Date/Time
WST
Temp
°C
App
Temp
°C
Dew
Point
°C
Rel
Hum
%
Delta-T
°C
Wind Press
QNH
hPa
Press
MSL
hPa
Rain since
9am
mm
Dir  Spd
km/h
Gust
km/h
Spd
kts
Gust
kts
23/11:30pm 21.6 18.7 6.7 38 7.6 SSE 11 13 6 7 1012.5 1012.5 0.0
23/11:00pm 22.5 19.0 7.1 37 7.9 SSE 15 19 8 10 1012.7 1012.7 0.0
23/10:30pm 24.6 21.1 7.3 33 9.1 SE 15 19 8 10 1012.6 1012.6 0.0
23/10:00pm 24.0 21.3 8.8 38 8.2 SE 13 15 7 8 1012.8 1012.8 0.0
23/09:30pm 21.2 20.3 11.2 53 5.5 SE 7 7 4 4 1012.8 1012.8 0.0
23/09:00pm 22.4 21.8 11.8 51 6.0 SE 6 6 3 3 1012.8 1012.8 0.0
23/08:30pm 22.1 21.2 11.5 51 5.9 S 7 9 4 5 1012.6 1012.6 0.0
23/08:00pm 23.0 22.5 12.0 50 6.2 S 6 7 3 4 1012.4 1012.4 0.0
23/07:30pm 23.0 23.2 12.0 50 6.2 NE 2 9 1 5 1012.1 1012.1 0.0
23/07:00pm 24.5 25.4 12.8 48 6.8 CALM 0 0 0 0 1011.7 1011.7 0.0
23/06:30pm 26.0 25.9 13.2 45 7.5 NNE 6 7 3 4 1011.5 1011.5 0.0
23/06:00pm 26.2 25.9 13.3 45 7.6 NW 7 11 4 6 1011.1 1011.1 0.0
23/05:30pm 27.4 26.5 13.7 43 8.1 NW 11 13 6 7 1010.8 1010.8 0.0
23/05:00pm 30.1 28.4 12.5 34 10.4 WNW 13 20 7 11 1010.6 1010.6 0.0
23/04:30pm 32.2 29.0 8.4 23 13.2 NNW 15 19 8 10 1010.5 1010.5 0.0
23/04:00pm 32.8 29.5 9.6 24 13.2 NW 17 20 9 11 1010.5 1010.5 0.0
23/03:30pm 32.7 29.0 9.5 24 13.2 WNW 19 22 10 12 1010.6 1010.6 0.0
23/03:00pm 32.5 28.9 10.5 26 12.7 NW 20 26 11 14 1010.9 1010.9 0.0
23/02:30pm 33.3 29.3 10.6 25 13.1 NW 22 28 12 15 1011.1 1011.1 0.0
23/02:00pm 33.2 29.6 10.5 25 13.1 WNW 20 26 11 14 1011.3 1011.3 0.0
23/01:30pm 33.3 29.9 10.6 25 13.1 NW 19 26 10 14 1011.6 1011.6 0.0
23/01:00pm 34.0 32.5 10.6 24 13.6 WNW 9 15 5 8 1012.2 1012.2 0.0
23/12:30pm 33.8 30.8 7.7 20 14.5 N 13 20 7 11 1012.4 1012.4 0.0
23/12:00pm 33.1 30.0 7.1 20 14.2 N 13 20 7 11 1012.9 1012.9 0.0
23/11:30am 32.7 30.8 7.5 21 13.9 SE 7 13 4 7 1013.4 1013.4 0.0
23/11:00am 32.2 30.2 7.1 21 13.7 NNE 7 13 4 7 1014.0 1014.0 0.0
23/10:30am 31.2 29.5 7.6 23 12.9 ESE 6 13 3 7 1014.5 1014.5 0.0
23/10:00am 29.7 27.6 8.2 26 11.8 ESE 9 17 5 9 1014.8 1014.8 0.0
23/09:30am 27.9 25.0 8.2 29 10.7 SSE 13 17 7 9 1014.9 1014.9 0.0
23/09:00am 26.0 22.7 8.0 32 9.6 SSE 15 19 8 10 1015.0 1015.0 0.0
23/08:30am 25.0 21.6 7.6 33 9.2 SSE 15 19 8 10 1014.9 1014.9 0.0
23/08:00am 23.1 20.8 7.6 37 8.1 E 9 15 5 8 1014.6 1014.6 0.0
23/07:30am 20.4 18.7 7.7 44 6.5 ENE 6 7 3 4 1014.4 1014.4 0.0
23/07:00am 18.0 16.2 7.1 49 5.5 ENE 6 7 3 4 1014.0 1014.0 0.0
23/06:30am 16.0 13.4 6.2 52 4.8 SSE 9 13 5 7 1013.6 1013.6 0.0
23/06:00am 15.7 13.5 6.2 53 4.6 SSW 7 11 4 6 1013.1 1013.1 0.0
23/05:30am 16.2 14.5 7.7 57 4.3 ENE 6 7 3 4 1012.6 1012.6 0.0
23/05:00am 16.7 15.0 7.4 54 4.6 ENE 6 9 3 5 1012.6 1012.6 0.0
23/04:30am 16.9 14.6 7.5 54 4.7 SSE 9 15 5 8 1012.7 1012.7 0.0
23/04:00am 16.7 16.3 8.4 58 4.2 CALM 0 0 0 0 1012.3 1012.3 0.0
23/03:30am 17.3 17.1 9.0 58 4.3 CALM 0 0 0 0 1012.5 1012.5 0.0
23/03:00am 17.7 17.0 8.6 55 4.7 W 2 6 1 3 1012.6 1012.6 0.0
23/02:30am 17.8 16.4 8.9 56 4.6 N 6 9 3 5 1012.9 1012.9 0.0
23/02:00am 18.4 17.5 9.2 55 4.8 NE 4 13 2 7 1012.5 1012.5 0.0
23/01:30am 18.1 16.1 8.7 54 4.9 W 9 11 5 6 1012.6 1012.6 0.0
23/01:00am 19.1 17.5 8.1 49 5.7 S 6 9 3 5 1012.7 1012.7 0.0
23/12:30am 19.2 17.4 9.4 53 5.2 S 9 11 5 6 1012.8 1012.8 0.0
23/12:00am 19.6 18.0 8.9 50 5.6 SSW 7 7 4 4 1012.8 1012.8 0.0
 
Date/Time
WST
Temp
°C
App
Temp
°C
Dew
Point
°C
Rel
Hum
%
Delta-T
°C
Wind Press
QNH
hPa
Press
MSL
hPa
Rain since
9am
mm
Dir  Spd
km/h
Gust
km/h
Spd
kts
Gust
kts
22/11:30pm 20.0 18.8 9.6 51 5.5 S 6 7 3 4 1012.8 1012.8 0.0
22/11:00pm 19.9 19.2 10.0 53 5.3 S 4 7 2 4 1013.0 1013.0 0.0
22/10:30pm 20.0 20.0 9.9 52 5.4 CALM 0 0 0 0 1013.0 1013.0 0.0
22/10:00pm 21.2 21.4 10.7 51 5.7 CALM 0 4 0 2 1013.0 1013.0 0.0
22/09:30pm 21.7 22.1 11.1 51 5.9 CALM 0 0 0 0 1013.0 1013.0 0.0
22/09:00pm 22.0 21.8 11.7 52 5.8 ENE 4 7 2 4 1012.8 1012.8 0.0
22/08:30pm 22.4 22.7 10.9 48 6.4 CALM 0 0 0 0 1012.7 1012.7 0.0
22/08:00pm 23.1 22.3 11.2 47 6.6 SE 6 6 3 3 1012.5 1012.5 0.0
22/07:30pm 23.1 23.3 10.5 45 6.9 CALM 0 0 0 0 1012.2 1012.2 0.0
22/07:00pm 24.7 25.1 11.3 43 7.5 CALM 0 6 0 3 1011.7 1011.7 0.0
22/06:30pm 25.5 25.5 12.4 44 7.5 WNW 4 6 2 3 1011.4 1011.4 0.0
22/06:00pm 26.4 25.4 10.9 38 8.7 NW 7 9 4 5 1010.9 1010.9 0.0
22/05:30pm 28.5 26.1 10.2 32 10.3 NNW 13 15 7 8 1010.6 1010.6 0.0
22/05:00pm 29.9 27.4 12.3 33 10.3 NNW 17 19 9 10 1010.5 1010.5 0.0
22/04:30pm 32.2 29.5 9.1 24 13.0 NW 13 20 7 11 1010.4 1010.4 0.0
22/04:00pm 32.6 29.1 8.8 23 13.4 NW 17 20 9 11 1010.4 1010.4 0.0
22/03:30pm 33.7 31.0 9.0 22 14.0 S 13 20 7 11 1010.4 1010.4 0.0
22/03:00pm 34.9 31.8 5.4 16 15.9 SSE 11 20 6 11 1010.5 1010.5 0.0
22/02:30pm 34.6 31.8 5.1 16 15.8 E 9 20 5 11 1010.6 1010.6 0.0
22/02:00pm 34.3 30.7 4.9 16 15.7 E 13 24 7 13 1010.8 1010.8 0.0
22/01:30pm 33.8 29.3 6.2 18 15.0 E 19 32 10 17 1011.3 1011.3 0.0
22/01:00pm 34.2 30.2 6.5 18 15.1 ESE 17 24 9 13 1011.7 1011.7 0.0
22/12:30pm 34.1 30.0 6.4 18 15.1 E 17 26 9 14 1012.1 1012.1 0.0
22/12:00pm 33.6 29.6 6.8 19 14.6 ESE 17 22 9 12 1012.8 1012.8 0.0
22/11:30am 33.2 28.8 7.2 20 14.3 SE 20 30 11 16 1013.5 1013.5 0.0
22/11:00am 32.3 28.2 7.9 22 13.5 ESE 19 28 10 15 1014.0 1014.0 0.0
22/10:30am 30.6 28.9 10.0 28 11.7 SSE 9 13 5 7 1014.4 1014.4 0.0
22/10:00am 28.1 27.1 10.3 33 10.0 SE 6 11 3 6 1015.0 1015.0 0.0
22/09:30am 26.4 24.5 10.5 37 8.9 SSE 11 15 6 8 1015.5 1015.5 0.0
22/09:00am 23.9 21.9 10.2 42 7.5 SSE 11 17 6 9 1015.6 1015.6 0.0
22/08:30am 22.6 20.2 10.1 45 6.8 S 13 19 7 10 1015.6 1015.6 0.0

Other Formats:

Comma delimited format used in spreadsheet applications
http://www.bom.gov.au/fwo/IDW60801/IDW60801.95205.axf

JavaScript Object Notation format (JSON) in row-major order
http://www.bom.gov.au/fwo/IDW60801/IDW60801.95205.json